createdAt,value
2023-05-17T00:04:15.433Z,90.16
2023-05-17T00:09:22.804Z,90.11
2023-05-17T00:14:26.864Z,90.19
2023-05-17T00:19:31.254Z,90.31
2023-05-17T00:24:33.497Z,90.55
2023-05-17T00:29:35.709Z,90.28
2023-05-17T00:34:41.699Z,90.59
2023-05-17T00:39:46.052Z,90.46
2023-05-17T00:44:53.050Z,90.50
2023-05-17T00:49:57.550Z,90.66
2023-05-17T00:55:06.502Z,90.72
2023-05-17T01:00:09.114Z,90.55
2023-05-17T01:05:15.794Z,90.89
2023-05-17T01:10:21.469Z,90.87
2023-05-17T01:15:28.118Z,90.80
2023-05-17T01:20:38.972Z,90.99
2023-05-17T01:26:13.420Z,90.93
2023-05-17T01:31:19.190Z,91.12
2023-05-17T01:36:26.447Z,91.01
2023-05-17T01:41:43.860Z,91.01
2023-05-17T01:47:16.689Z,91.01
2023-05-17T01:52:35.896Z,91.13
2023-05-17T01:57:44.983Z,91.31
2023-05-17T02:02:50.107Z,91.14
2023-05-17T02:07:54.326Z,91.13
2023-05-17T02:13:02.450Z,91.09
2023-05-17T02:18:04.602Z,91.32
2023-05-17T02:23:06.911Z,91.25
2023-05-17T02:28:10.368Z,91.76
2023-05-17T02:33:17.801Z,91.34
2023-05-17T02:38:28.522Z,91.60
2023-05-17T02:43:34.054Z,91.68
2023-05-17T02:48:36.264Z,91.86
2023-05-17T02:53:41.797Z,91.54
2023-05-17T02:58:49.061Z,91.86
2023-05-17T03:03:56.897Z,91.71
2023-05-17T03:09:03.149Z,91.43
2023-05-17T03:14:12.419Z,91.65
2023-05-17T03:19:14.710Z,91.72
2023-05-17T03:24:22.094Z,91.74
2023-05-17T03:29:25.752Z,91.63
2023-05-17T03:34:27.744Z,91.80
2023-05-17T03:39:32.145Z,91.54
2023-05-17T03:44:34.763Z,91.66
2023-05-17T03:49:41.797Z,91.67
2023-05-17T03:54:52.771Z,91.91
2023-05-17T03:59:55.323Z,91.78
2023-05-17T04:04:57.899Z,91.91
2023-05-17T04:10:02.886Z,91.92
2023-05-17T04:15:19.176Z,92.43
2023-05-17T04:20:24.672Z,92.13
2023-05-17T04:25:28.020Z,91.99
2023-05-17T04:30:30.741Z,91.85
2023-05-17T04:35:39.008Z,92.18
2023-05-17T04:40:42.711Z,92.17
2023-05-17T04:45:47.979Z,92.13
2023-05-17T04:50:50.993Z,91.94
2023-05-17T04:55:53.211Z,92.20
2023-05-17T05:00:56.751Z,92.26
2023-05-17T05:05:59.557Z,92.43
2023-05-17T05:11:02.946Z,92.44
2023-05-17T05:16:06.423Z,92.14
2023-05-17T05:21:11.444Z,92.42
2023-05-17T05:26:14.513Z,92.53
2023-05-17T05:31:17.441Z,92.50
2023-05-17T05:36:29.128Z,92.56
2023-05-17T05:41:38.698Z,92.25
2023-05-17T05:46:41.665Z,92.45
2023-05-17T05:52:05.164Z,92.26
2023-05-17T05:57:09.629Z,92.30
2023-05-17T06:02:12.328Z,92.04
2023-05-17T06:07:16.044Z,91.98
2023-05-17T06:12:23.482Z,91.96
2023-05-17T06:17:25.609Z,91.81
2023-05-17T06:22:27.889Z,91.92
2023-05-17T06:27:33.337Z,91.96
2023-05-17T06:32:35.903Z,92.02
2023-05-17T06:37:38.908Z,92.10
2023-05-17T06:42:41.534Z,92.22
2023-05-17T06:47:46.857Z,92.15
2023-05-17T06:52:49.284Z,92.10
2023-05-17T06:57:53.372Z,92.36
2023-05-17T07:02:55.640Z,92.42
2023-05-17T07:08:00.976Z,92.06
2023-05-17T07:13:03.642Z,92.40
2023-05-17T07:18:05.731Z,92.40
2023-05-17T07:23:07.809Z,92.40
2023-05-17T07:28:12.063Z,92.44
2023-05-17T07:33:14.222Z,92.38
2023-05-17T07:38:27.589Z,92.39
2023-05-17T07:43:30.573Z,92.12
2023-05-17T07:48:37.491Z,92.05
2023-05-17T07:53:39.622Z,92.44
2023-05-17T07:58:41.730Z,92.13
2023-05-17T08:03:48.314Z,92.03
2023-05-17T08:08:50.956Z,92.29
2023-05-17T08:13:56.901Z,92.63
2023-05-17T08:19:02.063Z,92.22
2023-05-17T08:24:07.135Z,92.02
2023-05-17T08:29:09.955Z,92.44
2023-05-17T08:34:15.455Z,92.43
2023-05-17T08:39:23.311Z,92.58
2023-05-17T08:44:28.430Z,92.69
2023-05-17T08:49:34.300Z,92.69
2023-05-17T08:54:37.533Z,92.66
2023-05-17T08:59:45.410Z,92.82
2023-05-17T09:04:55.693Z,92.59
2023-05-17T09:09:58.518Z,92.69
2023-05-17T09:15:15.065Z,92.86
2023-05-17T09:20:35.986Z,92.31
2023-05-17T09:25:47.256Z,91.93
2023-05-17T09:30:50.073Z,91.67
2023-05-17T09:35:53.125Z,91.91
2023-05-17T09:40:56.978Z,91.86
2023-05-17T09:45:59.404Z,91.83
2023-05-17T09:51:02.137Z,91.83
2023-05-17T09:56:05.820Z,91.71
2023-05-17T10:01:09.889Z,91.84
2023-05-17T10:06:27.718Z,91.73
2023-05-17T10:11:37.744Z,91.45
2023-05-17T10:16:40.076Z,91.41
2023-05-17T10:21:44.215Z,91.47
2023-05-17T10:26:46.522Z,91.59
2023-05-17T10:31:52.733Z,91.17
2023-05-17T10:36:55.661Z,91.77
2023-05-17T10:42:14.228Z,91.18
2023-05-17T10:47:18.054Z,91.19
2023-05-17T10:52:24.034Z,91.15
2023-05-17T10:57:49.666Z,91.11
2023-05-17T11:03:17.209Z,91.14
2023-05-17T11:08:24.535Z,91.49
2023-05-17T11:13:29.940Z,91.59
2023-05-17T11:18:52.695Z,91.92
2023-05-17T11:23:58.784Z,91.47
2023-05-17T11:29:15.145Z,91.36
2023-05-17T11:34:25.088Z,91.54
2023-05-17T11:39:27.545Z,91.80
2023-05-17T11:44:32.426Z,91.63
2023-05-17T11:49:37.769Z,91.32
2023-05-17T11:54:42.895Z,91.13
2023-05-17T11:59:46.315Z,91.23
2023-05-17T12:04:48.591Z,91.33
2023-05-17T12:09:56.748Z,91.66
2023-05-17T12:15:01.543Z,91.10
2023-05-17T12:20:10.440Z,90.66
2023-05-17T12:25:25.394Z,91.10
2023-05-17T12:30:28.029Z,90.89
2023-05-17T12:35:31.850Z,91.39
2023-05-17T12:40:42.674Z,91.31
2023-05-17T12:45:47.869Z,90.88
2023-05-17T12:50:55.781Z,91.61
2023-05-17T12:56:00.727Z,91.09
2023-05-17T13:01:10.662Z,91.34
2023-05-17T13:06:13.236Z,91.00
2023-05-17T13:11:19.090Z,91.21
2023-05-17T13:16:30.005Z,91.59
2023-05-17T13:21:34.874Z,91.52
2023-05-17T13:26:37.357Z,91.03
2023-05-17T13:31:42.683Z,91.05
2023-05-17T13:36:48.068Z,91.09
2023-05-17T13:41:50.283Z,91.76
2023-05-17T13:46:55.368Z,91.46
2023-05-17T13:51:57.773Z,91.71
2023-05-17T13:56:59.743Z,91.62
2023-05-17T14:02:04.774Z,91.35
2023-05-17T14:07:07.219Z,91.61
2023-05-17T14:12:10.140Z,91.69
2023-05-17T14:17:12.582Z,91.71
2023-05-17T14:22:14.914Z,92.00
2023-05-17T14:27:17.558Z,91.82
2023-05-17T14:32:19.624Z,91.79
2023-05-17T14:37:22.059Z,91.98
2023-05-17T14:42:24.559Z,92.36
2023-05-17T14:47:26.916Z,92.10
2023-05-17T14:52:29.353Z,91.88
2023-05-17T14:57:31.725Z,92.00
2023-05-17T15:02:33.801Z,92.01
2023-05-17T15:07:36.227Z,91.72
2023-05-17T15:12:39.123Z,92.04
2023-05-17T15:17:41.756Z,91.96
2023-05-17T15:22:44.529Z,92.23
2023-05-17T15:27:49.691Z,92.10
2023-05-17T15:32:52.080Z,92.16
2023-05-17T15:37:57.912Z,92.25
2023-05-17T15:43:00.038Z,92.47
2023-05-17T15:48:02.524Z,92.33
2023-05-17T15:53:05.300Z,92.18
2023-05-17T15:58:09.506Z,92.33
2023-05-17T16:03:12.540Z,92.44
2023-05-17T16:08:14.517Z,92.46
2023-05-17T16:13:16.810Z,92.49
2023-05-17T16:18:19.470Z,92.46
2023-05-17T16:23:22.506Z,92.11
2023-05-17T16:28:25.229Z,92.33
2023-05-17T16:33:27.585Z,92.35
2023-05-17T16:38:30.011Z,92.13
2023-05-17T16:43:32.139Z,92.18
2023-05-17T16:48:34.072Z,92.14
2023-05-17T16:53:36.455Z,92.14
2023-05-17T16:58:39.226Z,92.11
2023-05-17T17:03:41.575Z,92.18
2023-05-17T17:08:43.493Z,92.23
2023-05-17T17:13:46.097Z,92.37
2023-05-17T17:18:49.662Z,92.29
2023-05-17T17:23:52.282Z,92.35
2023-05-17T17:28:54.502Z,92.31
2023-05-17T17:33:56.652Z,92.45
2023-05-17T17:38:58.532Z,92.03
2023-05-17T17:44:01.533Z,92.13
2023-05-17T17:49:03.613Z,92.21
2023-05-17T17:54:07.357Z,92.10
2023-05-17T17:59:09.255Z,92.37
2023-05-17T18:04:11.329Z,92.12
2023-05-17T18:09:13.858Z,92.02
2023-05-17T18:14:15.823Z,92.26
2023-05-17T18:19:17.859Z,92.17
2023-05-17T18:24:20.600Z,91.78
2023-05-17T18:29:22.470Z,92.12
2023-05-17T18:34:25.672Z,92.12
2023-05-17T18:39:31.865Z,91.99
2023-05-17T18:44:35.325Z,91.98
2023-05-17T18:49:41.240Z,91.94
2023-05-17T18:54:43.951Z,91.63
2023-05-17T18:59:46.133Z,91.71
2023-05-17T19:04:48.434Z,91.84
2023-05-17T19:09:51.747Z,91.56
2023-05-17T19:14:53.695Z,91.75
2023-05-17T19:19:55.933Z,91.52
2023-05-17T19:24:57.793Z,91.44
2023-05-17T19:29:59.788Z,91.72
2023-05-17T19:35:02.310Z,91.51
2023-05-17T19:40:07.900Z,91.41
2023-05-17T19:45:11.702Z,91.54
2023-05-17T19:50:15.264Z,91.22
2023-05-17T19:55:22.207Z,91.62
2023-05-17T20:00:24.707Z,91.66
2023-05-17T20:05:27.965Z,91.40
2023-05-17T20:10:33.718Z,91.20
2023-05-17T20:15:43.990Z,91.40
2023-05-17T20:20:46.162Z,91.27
2023-05-17T20:25:49.991Z,91.45
2023-05-17T20:30:52.145Z,91.36
2023-05-17T20:35:59.346Z,91.22
2023-05-17T20:41:04.043Z,91.47
2023-05-17T20:46:09.833Z,91.17
2023-05-17T20:51:12.614Z,91.14
2023-05-17T20:56:17.790Z,91.37
2023-05-17T21:01:19.812Z,91.37
2023-05-17T21:06:30.261Z,91.38
2023-05-17T21:11:38.497Z,91.26
2023-05-17T21:16:40.851Z,91.14
2023-05-17T21:21:50.748Z,91.16
2023-05-17T21:26:53.310Z,90.91
2023-05-17T21:31:57.147Z,91.31
2023-05-17T21:36:59.590Z,91.04
2023-05-17T21:42:03.454Z,91.11
2023-05-17T21:47:10.647Z,90.94
2023-05-17T21:52:16.715Z,91.18
2023-05-17T21:57:21.151Z,90.70
2023-05-17T22:02:25.806Z,90.66
2023-05-17T22:07:28.653Z,91.40
2023-05-17T22:12:35.063Z,90.96
2023-05-17T22:17:47.810Z,90.89
2023-05-17T22:22:53.934Z,90.84
2023-05-17T22:27:56.045Z,91.01
2023-05-17T22:32:58.137Z,91.33
2023-05-17T22:38:00.451Z,91.18
2023-05-17T22:43:02.676Z,90.88
2023-05-17T22:48:08.232Z,90.64
2023-05-17T22:53:13.977Z,91.17
2023-05-17T22:58:16.274Z,91.05
2023-05-17T23:03:21.015Z,90.84
2023-05-17T23:08:24.311Z,90.79
2023-05-17T23:13:30.593Z,90.70
2023-05-17T23:18:33.263Z,90.70
2023-05-17T23:23:38.243Z,90.51
2023-05-17T23:28:41.392Z,90.47
2023-05-17T23:33:44.065Z,90.36
2023-05-17T23:38:47.861Z,90.64
2023-05-17T23:43:57.211Z,90.22
2023-05-17T23:49:12.867Z,89.89
2023-05-17T23:54:16.065Z,89.99
2023-05-17T23:59:18.925Z,89.74
